RJSH(METAR)
05/22 00:00
METAR RJSH 211500Z 06005KT 010V090 9999 FEW030 BKN120 14/12 Q1009
RMK 1CU030 7AC120 A2981=
戻る
トップページへ戻る
IMOC Co,.Ltd.